Time;durP1;ratioP1;P1;durP2;ratioP2;P2;SDS_P1;SDS_P2;PMS_P1;PMS_P2;Temp;Humidity;BMP_temperature;BMP_pressure;BME280_temperature;BME280_humidity;BME280_pressure;Samples;Min_cycle;Max_cycle;Signal;HPM_P1;HPM_P2
2021/09/23 00:00:21;;;;;;;58.30;34.00;;;8.70;99.90;;;;;;5052845;28;20513;-78
2021/09/23 00:02:49;;;;;;;;;;;8.70;99.90;;;;;;5053420;28;20029;-77
2021/09/23 00:05:22;;;;;;;61.75;30.38;;;8.70;99.90;;;;;;5053041;28;20405;-76
2021/09/23 00:07:50;;;;;;;55.28;31.60;;;8.70;99.90;;;;;;5052627;28;20036;-77
2021/09/23 00:10:20;;;;;;;52.90;30.67;;;8.80;99.90;;;;;;5052887;28;20059;-77
2021/09/23 00:12:46;;;;;;;56.35;31.45;;;8.80;99.90;;;;;;5034789;28;20105;-78
2021/09/23 00:15:15;;;;;;;54.20;29.63;;;8.80;99.90;;;;;;5053110;28;20117;-78
2021/09/23 00:17:47;;;;;;;54.17;34.10;;;8.80;99.90;;;;;;5052659;28;20036;-79
2021/09/23 00:20:20;;;;;;;51.17;29.13;;;8.80;99.90;;;;;;5050750;28;20017;-81
2021/09/23 00:22:47;;;;;;;52.08;30.27;;;8.80;99.90;;;;;;5052884;28;20030;-81
2021/09/23 00:25:13;;;;;;;59.28;31.30;;;8.80;99.90;;;;;;5052545;28;20021;-81
2021/09/23 00:27:39;;;;;;;54.97;31.20;;;8.90;99.90;;;;;;5052885;28;20024;-81
2021/09/23 00:30:07;;;;;;;50.05;31.13;;;8.90;99.90;;;;;;5053618;28;20028;-80
2021/09/23 00:32:32;;;;;;;57.83;32.92;;;8.90;99.90;;;;;;5057314;28;20021;-79
2021/09/23 00:34:58;;;;;;;52.75;28.98;;;8.90;99.90;;;;;;5053043;28;20437;-81
2021/09/23 00:37:24;;;;;;;48.90;28.38;;;8.90;99.90;;;;;;5054298;28;20037;-81
2021/09/23 00:39:50;;;;;;;43.83;27.55;;;8.90;99.90;;;;;;5056731;28;20036;-83
2021/09/23 00:42:16;;;;;;;47.13;26.50;;;9.00;99.90;;;;;;5056438;28;20021;-80
2021/09/23 00:45:02;;;;;;;47.67;26.13;;;9.00;99.90;;;;;;5055346;28;20056;-80
2021/09/23 00:47:29;;;;;;;45.30;24.98;;;9.00;99.90;;;;;;5056126;28;20055;-78
2021/09/23 00:49:55;;;;;;;43.85;25.05;;;9.00;99.90;;;;;;5056089;28;20033;-79
2021/09/23 00:52:25;;;;;;;41.78;23.80;;;9.00;99.90;;;;;;5037979;28;20045;-79
2021/09/23 00:54:51;;;;;;;39.78;24.35;;;9.00;99.90;;;;;;5056380;28;20032;-78
2021/09/23 00:57:18;;;;;;;50.55;25.75;;;9.00;99.90;;;;;;5056112;28;20032;-78
2021/09/23 00:59:48;;;;;;;45.80;25.25;;;9.00;99.90;;;;;;5045099;28;20382;-78
2021/09/23 01:02:17;;;;;;;42.45;23.73;;;9.00;99.90;;;;;;5053616;28;20389;-79
2021/09/23 01:04:44;;;;;;;41.78;25.88;;;9.00;99.90;;;;;;5055951;28;20100;-79
2021/09/23 01:07:15;;;;;;;35.40;22.80;;;9.00;99.90;;;;;;5056097;28;20028;-78
2021/09/23 01:09:45;;;;;;;43.85;24.23;;;9.00;99.90;;;;;;5056924;28;20055;-79
2021/09/23 01:12:12;;;;;;;42.22;23.15;;;9.00;99.90;;;;;;5055869;28;20104;-79
2021/09/23 01:14:38;;;;;;;42.28;23.80;;;9.00;99.90;;;;;;5056027;28;20451;-79
2021/09/23 01:17:05;;;;;;;38.28;22.58;;;9.00;99.90;;;;;;5055686;28;20041;-79
2021/09/23 01:19:32;;;;;;;34.30;21.50;;;9.00;99.90;;;;;;5055727;28;20017;-79
2021/09/23 01:21:58;;;;;;;41.83;23.55;;;9.00;99.90;;;;;;5055706;28;20028;-79
2021/09/23 01:24:25;;;;;;;37.90;22.92;;;9.00;99.90;;;;;;5044664;28;20029;-78
2021/09/23 01:26:51;;;;;;;42.05;22.55;;;9.00;99.90;;;;;;5035613;28;20025;-80
2021/09/23 01:29:17;;;;;;;43.90;23.48;;;9.00;99.90;;;;;;5035632;28;20095;-79
2021/09/23 01:31:44;;;;;;;36.22;22.38;;;9.00;99.90;;;;;;5035708;28;20519;-79
2021/09/23 01:34:11;;;;;;;39.43;22.80;;;9.00;99.90;;;;;;5035568;28;20430;-80
2021/09/23 01:36:37;;;;;;;38.47;24.85;;;9.00;99.90;;;;;;5035558;28;20294;-79
2021/09/23 01:39:03;;;;;;;45.83;25.45;;;9.10;99.90;;;;;;5035536;28;20029;-78
2021/09/23 01:41:29;;;;;;;45.30;25.63;;;9.10;99.90;;;;;;5035805;28;20471;-79
2021/09/23 01:43:55;;;;;;;44.55;24.65;;;9.10;99.90;;;;;;5047050;28;20112;-80
2021/09/23 01:46:21;;;;;;;45.80;25.38;;;9.10;99.90;;;;;;5044062;28;20013;-78
2021/09/23 01:48:47;;;;;;;42.85;24.42;;;9.10;99.90;;;;;;5048079;28;20036;-79
2021/09/23 01:51:12;;;;;;;49.97;26.60;;;9.10;99.90;;;;;;5035374;28;20147;-78
2021/09/23 01:53:38;;;;;;;48.47;27.77;;;9.10;99.90;;;;;;5046096;28;20490;-80
2021/09/23 01:56:04;;;;;;;40.88;25.92;;;9.10;99.90;;;;;;5055024;28;20037;-79
2021/09/23 01:58:30;;;;;;;44.95;24.25;;;9.00;99.90;;;;;;5037128;28;20028;-79
2021/09/23 02:00:56;;;;;;;46.78;24.48;;;9.00;99.90;;;;;;5052851;28;20078;-79
2021/09/23 02:03:21;;;;;;;49.58;26.80;;;9.10;99.90;;;;;;5035178;28;20022;-79
2021/09/23 02:05:47;;;;;;;39.95;23.83;;;9.10;99.90;;;;;;5035075;28;20029;-79
2021/09/23 02:08:13;;;;;;;42.67;24.08;;;9.10;99.90;;;;;;5034923;28;20021;-80
2021/09/23 02:10:39;;;;;;;46.20;25.30;;;9.10;99.90;;;;;;5034869;28;20103;-79
2021/09/23 02:13:05;;;;;;;45.60;25.35;;;9.00;99.90;;;;;;5034838;28;20079;-80
2021/09/23 02:15:31;;;;;;;55.85;27.75;;;9.00;99.90;;;;;;5034861;28;20409;-79
2021/09/23 02:17:57;;;;;;;48.80;24.85;;;9.00;99.90;;;;;;5033948;28;20030;-79
2021/09/23 02:20:22;;;;;;;43.45;25.83;;;9.10;99.90;;;;;;5053499;28;20021;-79
2021/09/23 02:22:49;;;;;;;47.60;27.48;;;9.10;99.90;;;;;;5044411;28;20479;-78
2021/09/23 02:25:14;;;;;;;48.10;26.48;;;9.20;99.90;;;;;;5034901;28;20025;-79
2021/09/23 02:27:40;;;;;;;48.25;26.15;;;9.20;99.90;;;;;;5034808;28;20029;-78
2021/09/23 02:30:07;;;;;;;43.58;26.55;;;9.20;99.90;;;;;;5036550;28;20026;-78
2021/09/23 02:32:33;;;;;;;44.15;24.20;;;9.20;99.90;;;;;;5034996;28;20414;-79
2021/09/23 02:34:59;;;;;;;44.90;26.63;;;9.20;99.90;;;;;;5034882;28;20028;-80
2021/09/23 02:37:25;;;;;;;48.53;26.58;;;9.20;99.90;;;;;;5034846;28;20064;-78
2021/09/23 02:39:52;;;;;;;41.80;24.38;;;9.20;99.90;;;;;;5035684;28;20029;-80
2021/09/23 02:42:19;;;;;;;50.87;26.70;;;9.20;99.90;;;;;;5035396;28;20113;-80
2021/09/23 02:44:45;;;;;;;49.67;24.63;;;9.10;99.90;;;;;;5018299;28;20640;-79
2021/09/23 02:47:30;;;;;;;44.35;24.55;;;9.10;99.90;;;;;;5054203;28;20047;-79
2021/09/23 02:49:56;;;;;;;49.33;24.60;;;9.10;99.90;;;;;;5054426;28;20025;-79
2021/09/23 02:52:21;;;;;;;38.25;22.60;;;9.10;99.90;;;;;;5054234;28;20557;-80
2021/09/23 02:54:47;;;;;;;41.28;22.92;;;9.00;99.90;;;;;;5036820;28;20047;-79
2021/09/23 02:57:13;;;;;;;38.70;22.05;;;9.00;99.90;;;;;;5054269;28;20386;-80
2021/09/23 02:59:39;;;;;;;32.92;20.27;;;9.00;99.90;;;;;;5055372;28;20460;-80
2021/09/23 03:02:05;;;;;;;39.40;21.17;;;9.10;99.90;;;;;;5054704;28;20155;-80
2021/09/23 03:04:31;;;;;;;30.65;19.00;;;9.10;99.90;;;;;;5053138;28;20021;-80
2021/09/23 03:06:57;;;;;;;30.33;19.00;;;9.20;99.90;;;;;;5054100;28;20466;-80
2021/09/23 03:09:23;;;;;;;36.33;19.45;;;9.10;99.90;;;;;;5036121;28;20032;-80
2021/09/23 03:11:49;;;;;;;33.08;18.58;;;9.10;99.90;;;;;;5054384;28;20029;-79
2021/09/23 03:14:15;;;;;;;27.30;15.93;;;9.20;99.90;;;;;;5053890;28;20021;-78
2021/09/23 03:16:41;;;;;;;28.20;15.57;;;9.20;99.90;;;;;;5053913;28;20552;-78
2021/09/23 03:19:07;;;;;;;25.48;15.80;;;9.20;99.90;;;;;;5053646;28;20013;-80
2021/09/23 03:21:33;;;;;;;27.25;14.38;;;9.20;99.90;;;;;;5053554;28;20378;-80
2021/09/23 03:23:59;;;;;;;23.02;15.00;;;9.20;99.90;;;;;;5053658;28;20032;-79
2021/09/23 03:26:25;;;;;;;27.60;16.38;;;9.20;99.90;;;;;;5053888;28;20104;-80
2021/09/23 03:28:51;;;;;;;22.85;14.68;;;9.10;99.90;;;;;;5053750;28;20025;-79
2021/09/23 03:31:17;;;;;;;19.58;12.80;;;9.00;99.90;;;;;;5053832;28;20021;-80
2021/09/23 03:33:43;;;;;;;18.20;13.82;;;9.00;99.90;;;;;;5054518;28;20075;-79
2021/09/23 03:36:08;;;;;;;21.73;12.73;;;9.00;99.90;;;;;;5054363;28;20037;-80
2021/09/23 03:38:34;;;;;;;20.73;13.57;;;9.00;99.90;;;;;;5054204;28;20021;-79
2021/09/23 03:41:00;;;;;;;18.27;11.77;;;9.00;99.90;;;;;;5054075;28;20025;-80
2021/09/23 03:43:26;;;;;;;20.13;12.13;;;9.00;99.90;;;;;;5053426;28;20601;-80
2021/09/23 03:45:52;;;;;;;25.38;12.90;;;9.00;99.90;;;;;;5053366;28;20044;-80
2021/09/23 03:48:20;;;;;;;19.73;12.80;;;9.00;99.90;;;;;;5053591;28;20025;-81
2021/09/23 03:50:46;;;;;;;18.85;10.70;;;9.00;99.90;;;;;;5053792;28;20041;-80
2021/09/23 03:53:13;;;;;;;16.00;9.80;;;9.00;99.90;;;;;;5054630;28;20033;-84
2021/09/23 03:55:38;;;;;;;17.00;9.75;;;9.00;99.90;;;;;;5038392;28;20040;-80
2021/09/23 03:58:04;;;;;;;15.85;9.70;;;9.00;99.90;;;;;;5037906;28;20430;-80
2021/09/23 04:00:30;;;;;;;13.68;8.98;;;9.00;99.90;;;;;;5053459;28;20029;-81
2021/09/23 04:02:56;;;;;;;18.63;10.70;;;9.00;99.90;;;;;;5053200;28;20387;-81
2021/09/23 04:05:22;;;;;;;15.48;9.98;;;9.00;99.90;;;;;;5053601;28;20060;-81
2021/09/23 04:07:48;;;;;;;13.30;9.45;;;9.10;99.90;;;;;;5054122;28;20024;-82
2021/09/23 04:10:14;;;;;;;12.55;8.48;;;9.10;99.90;;;;;;5053256;28;20086;-81
2021/09/23 04:12:40;;;;;;;14.32;8.77;;;9.20;99.90;;;;;;5051725;28;20417;-80
2021/09/23 04:15:07;;;;;;;14.05;8.80;;;9.10;99.90;;;;;;5052990;28;20035;-80
2021/09/23 04:17:34;;;;;;;13.97;9.50;;;9.10;99.90;;;;;;5052848;28;20120;-81
2021/09/23 04:20:00;;;;;;;14.13;9.23;;;9.20;99.90;;;;;;5052740;28;20266;-81
2021/09/23 04:22:26;;;;;;;14.60;10.10;;;9.20;99.90;;;;;;5052677;28;20474;-81
2021/09/23 04:24:52;;;;;;;13.65;9.13;;;9.30;99.90;;;;;;5052978;28;20071;-80
2021/09/23 04:27:18;;;;;;;13.18;9.40;;;9.30;99.90;;;;;;5053485;28;20536;-81
2021/09/23 04:29:44;;;;;;;14.60;8.68;;;9.40;99.90;;;;;;5054367;28;20095;-81
2021/09/23 04:32:11;;;;;;;12.25;8.57;;;9.40;99.90;;;;;;5052873;28;20029;-80
2021/09/23 04:34:37;;;;;;;9.27;6.97;;;9.40;99.90;;;;;;5053281;28;20021;-80
2021/09/23 04:37:03;;;;;;;12.07;8.13;;;9.40;99.90;;;;;;5052577;28;20083;-82
2021/09/23 04:39:29;;;;;;;13.77;8.52;;;9.30;99.90;;;;;;5052820;28;20025;-81
2021/09/23 04:41:55;;;;;;;10.00;6.88;;;9.30;99.90;;;;;;5053653;28;20032;-81
2021/09/23 04:44:21;;;;;;;9.60;6.40;;;9.30;99.90;;;;;;5053352;28;20178;-80
2021/09/23 04:46:47;;;;;;;8.30;6.35;;;9.30;99.90;;;;;;5051336;28;20029;-80
2021/09/23 04:49:13;;;;;;;12.18;8.25;;;9.40;99.90;;;;;;5052805;28;20032;-81
2021/09/23 04:51:40;;;;;;;9.30;7.53;;;9.50;99.90;;;;;;5052683;28;20045;-80
2021/09/23 04:54:07;;;;;;;12.57;7.77;;;9.50;99.90;;;;;;5034975;28;20432;-80
2021/09/23 04:56:33;;;;;;;14.35;9.00;;;9.60;99.90;;;;;;5052858;28;20068;-80
2021/09/23 04:58:59;;;;;;;12.48;8.00;;;9.60;99.90;;;;;;5034369;28;20021;-80
2021/09/23 05:01:25;;;;;;;15.48;9.27;;;9.60;99.90;;;;;;5052776;28;20032;-80
2021/09/23 05:03:51;;;;;;;15.32;10.43;;;9.60;99.90;;;;;;5053161;28;20077;-81
2021/09/23 05:06:16;;;;;;;12.30;8.73;;;9.60;99.90;;;;;;5038629;28;20112;-81
2021/09/23 05:08:42;;;;;;;12.60;9.93;;;9.60;99.90;;;;;;5015202;28;20021;-81
2021/09/23 05:11:08;;;;;;;14.77;10.02;;;9.60;99.90;;;;;;5035464;28;20096;-80
2021/09/23 05:13:34;;;;;;;16.20;9.68;;;9.70;99.90;;;;;;5032877;28;20478;-81
2021/09/23 05:16:00;;;;;;;17.38;11.70;;;9.80;99.90;;;;;;5032714;28;20567;-81
2021/09/23 05:18:26;;;;;;;12.95;8.57;;;9.90;99.90;;;;;;5035532;28;20017;-81
2021/09/23 05:20:51;;;;;;;12.60;7.97;;;9.80;99.90;;;;;;5052128;28;20029;-81
2021/09/23 05:23:17;;;;;;;17.88;10.40;;;9.90;99.90;;;;;;5052358;28;20037;-81
2021/09/23 05:25:43;;;;;;;11.02;8.48;;;10.00;99.90;;;;;;5055832;28;20033;-81
2021/09/23 05:28:09;;;;;;;12.75;8.52;;;10.00;99.90;;;;;;5038575;28;20216;-81
2021/09/23 05:30:36;;;;;;;12.98;7.75;;;10.00;99.90;;;;;;5056048;28;20024;-81
2021/09/23 05:33:02;;;;;;;13.38;8.35;;;10.00;99.90;;;;;;5056264;28;20098;-82
2021/09/23 05:35:27;;;;;;;12.60;9.15;;;9.90;99.90;;;;;;5055834;28;20024;-81
2021/09/23 05:37:53;;;;;;;10.65;8.60;;;9.80;99.90;;;;;;5055662;28;20036;-83
2021/09/23 05:40:19;;;;;;;9.73;7.75;;;9.80;99.90;;;;;;5056255;28;20611;-81
2021/09/23 05:42:45;;;;;;;14.75;7.95;;;9.90;99.90;;;;;;5038307;28;20025;-80
2021/09/23 05:45:12;;;;;;;13.23;9.02;;;10.00;99.90;;;;;;5055497;28;20021;-81
2021/09/23 05:47:40;;;;;;;10.77;7.65;;;10.10;99.90;;;;;;5055571;28;20382;-81
2021/09/23 05:50:07;;;;;;;11.50;8.00;;;10.20;99.90;;;;;;5055412;28;20036;-81
2021/09/23 05:52:33;;;;;;;10.65;8.05;;;10.30;99.90;;;;;;5054861;28;20049;-81
2021/09/23 05:54:59;;;;;;;16.08;9.90;;;10.40;99.90;;;;;;5055352;28;20091;-83
2021/09/23 05:57:32;;;;;;;10.27;8.68;;;10.40;99.90;;;;;;5054004;28;20033;-81
2021/09/23 05:59:59;;;;;;;11.98;9.02;;;10.40;99.90;;;;;;5054936;28;20072;-82
2021/09/23 06:02:25;;;;;;;13.57;9.67;;;10.40;99.90;;;;;;5055129;28;20021;-82
2021/09/23 06:04:51;;;;;;;11.32;8.48;;;10.30;99.90;;;;;;5037343;28;20555;-81
2021/09/23 06:07:17;;;;;;;14.20;9.00;;;10.40;99.90;;;;;;5055595;28;20021;-80
2021/09/23 06:09:42;;;;;;;13.10;8.85;;;10.30;99.90;;;;;;5053904;28;20378;-82
2021/09/23 06:12:08;;;;;;;15.20;8.98;;;10.30;99.90;;;;;;5054080;28;20367;-83
2021/09/23 06:14:35;;;;;;;11.25;8.23;;;10.30;99.90;;;;;;5057420;28;20017;-81
2021/09/23 06:17:01;;;;;;;14.55;9.55;;;10.30;99.90;;;;;;5041289;28;20039;-81
2021/09/23 06:19:26;;;;;;;11.60;9.20;;;10.30;99.90;;;;;;5055676;28;20419;-81
2021/09/23 06:21:52;;;;;;;15.70;10.45;;;10.40;99.90;;;;;;5056016;28;20043;-81
2021/09/23 06:24:18;;;;;;;13.73;10.07;;;10.40;99.90;;;;;;5055217;28;20029;-82
2021/09/23 06:26:44;;;;;;;13.68;9.55;;;10.50;99.90;;;;;;5051639;28;20021;-82
2021/09/23 06:29:10;;;;;;;11.25;8.50;;;10.50;99.90;;;;;;5035953;28;20041;-82
2021/09/23 06:31:35;;;;;;;15.73;8.73;;;10.60;99.90;;;;;;5041032;28;20030;-81
2021/09/23 06:34:02;;;;;;;12.50;8.85;;;10.50;99.90;;;;;;5034918;28;20022;-82
2021/09/23 06:36:28;;;;;;;14.30;9.18;;;10.60;99.90;;;;;;5032909;28;20124;-82
2021/09/23 06:38:57;;;;;;;12.32;9.40;;;10.60;99.90;;;;;;5017025;28;20113;-82
2021/09/23 06:41:22;;;;;;;12.15;9.68;;;10.60;99.90;;;;;;5035241;28;20051;-82
2021/09/23 06:43:50;;;;;;;12.85;8.85;;;10.60;99.90;;;;;;5035587;28;20026;-82
2021/09/23 06:46:17;;;;;;;;;;;10.70;99.90;;;;;;5028318;28;20029;-81
2021/09/23 06:48:43;;;;;;;12.38;9.25;;;10.60;99.90;;;;;;5053707;28;19968;-80
2021/09/23 06:51:09;;;;;;;13.90;11.23;;;10.60;99.90;;;;;;5054011;28;20052;-82
2021/09/23 06:53:34;;;;;;;13.75;10.38;;;10.60;99.90;;;;;;5054369;28;20486;-81
2021/09/23 06:56:00;;;;;;;18.45;10.68;;;10.70;99.90;;;;;;5053958;28;20025;-82
2021/09/23 06:58:26;;;;;;;17.83;11.55;;;10.70;99.90;;;;;;5036046;28;20444;-82
2021/09/23 07:00:52;;;;;;;16.52;11.98;;;10.70;99.90;;;;;;5053900;28;20146;-81
2021/09/23 07:03:17;;;;;;;19.75;11.85;;;10.70;99.90;;;;;;5036446;28;20406;-80
2021/09/23 07:05:44;;;;;;;18.27;11.80;;;10.70;99.90;;;;;;5055373;28;20481;-81
2021/09/23 07:08:10;;;;;;;16.00;10.55;;;10.80;99.90;;;;;;5053471;28;20055;-82
2021/09/23 07:10:36;;;;;;;18.00;11.77;;;10.80;99.90;;;;;;5054221;28;20470;-82
2021/09/23 07:13:02;;;;;;;13.75;10.55;;;10.90;99.90;;;;;;5054000;28;20029;-81
2021/09/23 07:15:28;;;;;;;14.70;10.30;;;10.80;99.90;;;;;;5054507;28;20064;-81
2021/09/23 07:17:54;;;;;;;13.73;11.27;;;10.90;99.90;;;;;;5035354;28;20048;-82
2021/09/23 07:20:20;;;;;;;14.43;12.90;;;10.80;99.90;;;;;;5033813;28;20033;-81
2021/09/23 07:22:45;;;;;;;17.38;12.45;;;10.80;99.90;;;;;;5033484;28;20026;-80
2021/09/23 07:25:13;;;;;;;19.95;11.43;;;10.80;99.90;;;;;;5036151;28;20036;-85
2021/09/23 07:27:38;;;;;;;18.88;12.43;;;10.90;99.90;;;;;;5036687;28;20092;-85
2021/09/23 07:30:05;;;;;;;15.05;11.07;;;10.90;99.90;;;;;;5033432;28;20124;-84
2021/09/23 07:32:31;;;;;;;14.23;11.45;;;10.80;99.90;;;;;;5034331;28;20084;-86
2021/09/23 07:34:56;;;;;;;12.18;10.85;;;10.70;99.90;;;;;;5044451;28;20018;-84
2021/09/23 07:37:24;;;;;;;16.65;11.90;;;10.70;99.90;;;;;;5035238;28;20044;-82
2021/09/23 07:39:49;;;;;;;17.10;10.40;;;10.70;99.90;;;;;;5033838;28;20041;-84
2021/09/23 07:42:16;;;;;;;17.95;12.63;;;10.80;99.90;;;;;;5034596;28;20033;-84
2021/09/23 07:44:43;;;;;;;19.55;11.25;;;10.80;99.90;;;;;;5034309;28;20071;-84
2021/09/23 07:47:09;;;;;;;15.80;10.10;;;10.90;99.90;;;;;;5047858;28;20059;-84
2021/09/23 07:49:35;;;;;;;15.63;11.57;;;10.80;99.90;;;;;;5054676;28;20025;-84
2021/09/23 07:52:01;;;;;;;18.42;12.85;;;10.80;99.90;;;;;;5053781;28;20148;-83
2021/09/23 07:54:27;;;;;;;17.80;12.02;;;10.90;99.90;;;;;;5053859;28;20017;-83
2021/09/23 07:56:53;;;;;;;17.58;11.68;;;10.90;99.90;;;;;;5054130;28;20090;-82
2021/09/23 07:59:19;;;;;;;14.90;12.93;;;10.90;99.90;;;;;;5035754;28;20036;-83
2021/09/23 08:01:45;;;;;;;17.02;11.65;;;10.90;99.90;;;;;;5053376;28;20029;-84
2021/09/23 08:04:10;;;;;;;17.13;12.63;;;10.90;99.90;;;;;;5053192;28;20386;-82
2021/09/23 08:06:36;;;;;;;17.55;13.93;;;11.00;99.90;;;;;;5053473;28;20470;-82
2021/09/23 08:09:02;;;;;;;16.67;13.77;;;11.00;99.90;;;;;;5053530;28;20027;-82
2021/09/23 08:11:28;;;;;;;17.00;12.43;;;10.90;99.90;;;;;;5054003;28;20028;-82
2021/09/23 08:13:54;;;;;;;18.27;14.10;;;10.90;99.90;;;;;;5055004;28;20383;-81
2021/09/23 08:16:20;;;;;;;15.85;13.30;;;10.90;99.90;;;;;;5037595;28;20493;-83
2021/09/23 08:18:45;;;;;;;19.17;13.65;;;10.90;99.90;;;;;;5033950;28;20454;-84
2021/09/23 08:21:11;;;;;;;17.77;11.77;;;10.90;99.90;;;;;;5035718;28;20421;-84
2021/09/23 08:23:37;;;;;;;18.33;14.35;;;10.90;99.90;;;;;;5015980;28;20390;-84
2021/09/23 08:26:03;;;;;;;20.35;15.77;;;10.90;99.90;;;;;;5034514;28;20032;-83
2021/09/23 08:28:31;;;;;;;16.00;12.93;;;10.90;99.90;;;;;;5035924;28;20022;-83
2021/09/23 08:30:58;;;;;;;14.63;11.55;;;11.00;99.90;;;;;;5032613;28;20028;-82
2021/09/23 08:33:24;;;;;;;14.35;11.27;;;11.00;99.90;;;;;;5032947;28;20029;-82
2021/09/23 08:35:50;;;;;;;12.45;10.23;;;11.00;99.90;;;;;;5032715;28;20037;-82
2021/09/23 08:38:19;;;;;;;14.35;10.40;;;11.10;99.90;;;;;;5032515;28;20032;-83
2021/09/23 08:40:54;;;;;;;14.68;9.93;;;11.20;99.90;;;;;;5032606;28;20021;-82
2021/09/23 08:43:20;;;;;;;11.70;10.50;;;11.10;99.90;;;;;;5031176;28;20498;-83
2021/09/23 08:45:46;;;;;;;14.65;11.85;;;11.20;99.90;;;;;;5035795;28;20059;-83
2021/09/23 08:48:14;;;;;;;15.70;11.18;;;11.20;99.90;;;;;;5052158;28;20101;-82
2021/09/23 08:50:40;;;;;;;21.02;11.45;;;11.30;99.90;;;;;;5053054;28;20129;-83
2021/09/23 08:53:06;;;;;;;15.90;13.07;;;11.40;99.90;;;;;;5052811;28;20138;-84
2021/09/23 08:55:33;;;;;;;19.33;13.10;;;11.40;99.90;;;;;;5034590;28;20025;-84
2021/09/23 08:58:05;;;;;;;16.05;13.63;;;11.20;99.90;;;;;;5053588;28;20032;-83
2021/09/23 09:00:37;;;;;;;19.25;15.57;;;11.10;99.90;;;;;;5038359;28;20091;-83
2021/09/23 09:03:09;;;;;;;18.02;13.73;;;11.00;99.90;;;;;;5056072;28;20025;-84
2021/09/23 09:05:37;;;;;;;14.70;13.18;;;11.00;99.90;;;;;;5038174;28;20432;-82
2021/09/23 09:08:10;;;;;;;17.92;14.15;;;11.10;99.90;;;;;;5056483;28;20104;-82
2021/09/23 09:10:36;;;;;;;21.88;14.90;;;11.20;99.90;;;;;;5039431;28;20036;-83
2021/09/23 09:13:04;;;;;;;16.65;13.30;;;11.30;99.90;;;;;;5038364;28;20021;-83
2021/09/23 09:15:32;;;;;;;21.67;15.25;;;11.30;99.90;;;;;;5038488;28;20029;-82
2021/09/23 09:18:10;;;;;;;19.17;15.02;;;11.40;99.90;;;;;;5018939;28;20044;-84
2021/09/23 09:20:59;;;;;;;20.20;15.73;;;11.50;99.90;;;;;;5019259;28;20455;-83
2021/09/23 09:23:41;;;;;;;14.88;13.15;;;11.50;99.90;;;;;;5018195;28;20083;-84
2021/09/23 09:26:09;;;;;;;20.83;14.00;;;11.50;99.90;;;;;;5035635;28;20092;-83
2021/09/23 09:28:46;;;;;;;24.88;18.52;;;11.50;99.90;;;;;;5018058;28;20029;-83
2021/09/23 09:31:13;;;;;;;19.05;16.63;;;11.50;99.90;;;;;;5020051;28;20510;-83
2021/09/23 09:33:42;;;;;;;19.30;16.33;;;11.50;99.90;;;;;;5040954;28;20052;-83
2021/09/23 09:36:32;;;;;;;20.00;16.38;;;11.60;99.90;;;;;;5020130;28;20025;-82
2021/09/23 09:39:05;;;;;;;20.30;16.67;;;11.80;99.90;;;;;;5035746;28;20487;-84
2021/09/23 09:41:37;;;;;;;21.02;18.45;;;12.00;99.90;;;;;;5018063;28;20025;-84
2021/09/23 09:44:08;;;;;;;19.27;17.23;;;12.20;99.90;;;;;;5036391;28;20101;-82
2021/09/23 09:46:38;;;;;;;20.80;16.45;;;12.30;99.80;;;;;;5045899;28;20378;-84
2021/09/23 09:49:04;;;;;;;18.98;16.25;;;12.30;99.70;;;;;;5055606;28;20116;-83
2021/09/23 09:52:06;;;;;;;26.50;19.15;;;12.40;99.60;;;;;;5055178;28;20059;-86
2021/09/23 09:54:32;;;;;;;21.75;18.38;;;12.50;99.40;;;;;;5055530;28;20023;-84
2021/09/23 09:57:04;;;;;;;22.33;16.48;;;12.60;99.40;;;;;;5055252;28;20037;-84
2021/09/23 09:59:30;;;;;;;19.88;16.05;;;12.50;99.40;;;;;;5053844;28;20044;-82
2021/09/23 10:01:57;;;;;;;17.45;15.18;;;12.50;99.40;;;;;;5055086;28;20021;-84
2021/09/23 10:04:27;;;;;;;16.77;14.98;;;12.40;99.30;;;;;;5054799;28;20044;-83
2021/09/23 10:06:57;;;;;;;18.38;14.88;;;12.30;99.50;;;;;;5055060;28;20048;-83
2021/09/23 10:09:24;;;;;;;18.70;15.02;;;12.50;99.90;;;;;;5054431;28;20025;-84
2021/09/23 10:11:51;;;;;;;20.70;16.10;;;12.60;99.60;;;;;;5054936;28;20021;-84
2021/09/23 10:14:18;;;;;;;25.27;17.20;;;12.60;98.60;;;;;;5035242;28;20021;-84
2021/09/23 10:16:45;;;;;;;;;;;12.30;98.50;;;;;;5035272;28;20106;-86
2021/09/23 10:19:11;;;;;;;20.92;15.18;;;12.00;98.80;;;;;;5034917;28;19928;-85
2021/09/23 10:21:40;;;;;;;22.75;16.05;;;11.80;99.10;;;;;;5017355;28;20458;-84
2021/09/23 10:24:12;;;;;;;23.88;16.95;;;11.70;99.30;;;;;;5034634;28;20021;-82
2021/09/23 10:26:42;;;;;;;25.40;18.75;;;11.80;99.60;;;;;;5036640;28;20045;-83
2021/09/23 10:29:10;;;;;;;27.90;20.23;;;12.00;99.70;;;;;;5037613;28;20024;-81
2021/09/23 10:31:36;;;;;;;28.17;19.73;;;12.20;99.30;;;;;;5035775;28;20025;-83
2021/09/23 10:34:09;;;;;;;24.45;19.27;;;12.40;98.70;;;;;;5034843;28;20029;-82
2021/09/23 10:36:37;;;;;;;23.35;18.50;;;12.50;98.40;;;;;;5017563;28;20029;-83
2021/09/23 10:39:05;;;;;;;;;;;12.50;98.00;;;;;;5038641;28;20048;-83
2021/09/23 10:41:32;;;;;;;22.60;16.58;;;12.60;98.20;;;;;;5035232;28;19905;-83
2021/09/23 10:43:58;;;;;;;;;;;12.60;97.80;;;;;;5037728;28;20029;-83
2021/09/23 10:46:26;;;;;;;21.67;14.95;;;12.60;98.00;;;;;;5041561;28;19959;-83
2021/09/23 10:48:54;;;;;;;18.10;13.68;;;12.60;97.40;;;;;;5054340;28;20020;-83
2021/09/23 10:51:20;;;;;;;;;;;12.80;97.00;;;;;;5054720;28;20071;-84
2021/09/23 10:53:57;;;;;;;18.50;16.17;;;12.90;97.10;;;;;;5054216;28;20350;-83
2021/09/23 10:56:26;;;;;;;20.75;15.43;;;12.70;96.50;;;;;;5054767;28;20390;-82
2021/09/23 10:58:53;;;;;;;18.05;13.93;;;12.80;96.70;;;;;;5054760;28;20429;-84
2021/09/23 11:01:29;;;;;;;19.33;15.93;;;12.90;96.50;;;;;;5054386;28;20108;-83
2021/09/23 11:03:58;;;;;;;17.30;13.98;;;13.10;96.20;;;;;;5052943;28;20032;-82
2021/09/23 11:06:40;;;;;;;19.02;14.13;;;13.20;95.80;;;;;;5054026;28;20078;-84
2021/09/23 11:09:21;;;;;;;16.23;11.50;;;13.40;95.60;;;;;;5054351;28;20040;-82
2021/09/23 11:11:52;;;;;;;14.60;10.57;;;13.50;94.90;;;;;;5045264;28;20079;-82
2021/09/23 11:14:18;;;;;;;15.02;10.43;;;13.30;93.80;;;;;;5033788;28;20028;-82
2021/09/23 11:16:54;;;;;;;12.95;11.00;;;13.00;94.00;;;;;;5034793;28;20033;-82
2021/09/23 11:19:22;;;;;;;12.48;10.27;;;12.70;94.40;;;;;;5016810;28;20022;-83
2021/09/23 11:21:53;;;;;;;16.27;12.18;;;12.50;94.70;;;;;;5019463;28;20029;-83
2021/09/23 11:24:22;;;;;;;17.77;11.73;;;12.40;94.90;;;;;;5039294;28;20060;-82
2021/09/23 11:26:50;;;;;;;14.80;10.18;;;12.40;95.10;;;;;;5035380;28;20532;-84
2021/09/23 11:29:17;;;;;;;12.65;10.02;;;12.40;95.10;;;;;;5034792;28;20036;-81
2021/09/23 11:31:48;;;;;;;13.82;10.82;;;12.30;95.30;;;;;;5016922;28;20127;-83
2021/09/23 11:34:31;;;;;;;11.75;9.70;;;12.30;95.00;;;;;;5016158;28;20032;-82
2021/09/23 11:36:58;;;;;;;20.20;12.65;;;12.30;95.20;;;;;;5035735;28;20036;-82
2021/09/23 11:39:24;;;;;;;15.70;12.25;;;12.40;95.60;;;;;;5034873;28;20092;-84
2021/09/23 11:42:13;;;;;;;11.63;9.90;;;12.70;95.40;;;;;;5033898;28;20075;-83
2021/09/23 11:44:39;;;;;;;13.75;8.65;;;13.00;94.50;;;;;;5033916;28;20040;-83
2021/09/23 11:47:12;;;;;;;10.07;9.07;;;13.00;93.90;;;;;;5061405;28;20021;-81
2021/09/23 11:49:38;;;;;;;12.43;10.00;;;13.10;93.70;;;;;;5055699;28;20032;-83
2021/09/23 11:52:04;;;;;;;12.45;9.27;;;13.20;93.60;;;;;;5073217;28;20063;-83
2021/09/23 11:54:29;;;;;;;11.27;8.45;;;13.40;93.30;;;;;;5073511;28;20033;-82
2021/09/23 11:56:55;;;;;;;9.90;7.60;;;13.30;92.30;;;;;;5073212;28;20038;-84
2021/09/23 11:59:24;;;;;;;10.57;8.90;;;13.10;92.20;;;;;;5054949;28;20028;-82
2021/09/23 12:02:04;;;;;;;13.13;8.52;;;13.10;92.40;;;;;;5073086;28;20031;-84
2021/09/23 12:04:33;;;;;;;9.30;7.85;;;13.10;92.50;;;;;;5072870;28;20083;-83
2021/09/23 12:07:07;;;;;;;15.88;7.60;;;13.00;92.30;;;;;;5072825;28;20036;-84
2021/09/23 12:09:34;;;;;;;14.93;8.27;;;12.90;92.50;;;;;;5071425;28;20090;-84
2021/09/23 12:12:00;;;;;;;9.45;8.27;;;12.90;92.70;;;;;;5053334;28;20078;-83
2021/09/23 12:14:27;;;;;;;10.35;8.10;;;13.00;92.70;;;;;;5053046;28;20052;-83
2021/09/23 12:17:02;;;;;;;14.55;10.02;;;12.90;92.70;;;;;;5035390;28;20147;-83
2021/09/23 12:19:28;;;;;;;13.52;9.85;;;13.10;92.90;;;;;;5052897;28;20021;-83
2021/09/23 12:21:55;;;;;;;10.15;8.73;;;13.20;93.00;;;;;;5055848;28;20025;-83
2021/09/23 12:24:35;;;;;;;13.93;9.73;;;13.20;92.20;;;;;;5057030;28;20025;-82
2021/09/23 12:27:01;;;;;;;8.10;7.18;;;13.00;92.50;;;;;;5053749;28;20083;-84
2021/09/23 12:29:28;;;;;;;10.32;7.80;;;12.90;92.30;;;;;;5053048;28;20021;-84
2021/09/23 12:32:09;;;;;;;13.88;8.93;;;12.80;92.20;;;;;;5052869;28;20025;-82
2021/09/23 12:34:41;;;;;;;11.23;9.45;;;12.80;92.50;;;;;;5060439;28;20021;-82
2021/09/23 12:37:07;;;;;;;11.95;9.05;;;12.80;92.50;;;;;;5060042;28;20433;-82